Time;durP1;ratioP1;P1;durP2;ratioP2;P2;SDS_P1;SDS_P2;PMS_P1;PMS_P2;Temp;Humidity;BMP_temperature;BMP_pressure;BME280_temperature;BME280_humidity;BME280_pressure;Samples;Min_cycle;Max_cycle;Signal;HPM_P1;HPM_P2
2023/01/24 00:01:33;;;;;;;14.77;9.77;;;4.10;99.90;;;;;;5032546;28;20231;-68
2023/01/24 00:03:59;;;;;;;16.23;10.10;;;4.20;1.00;;;;;;5027640;28;20220;-64
2023/01/24 00:06:26;;;;;;;13.37;9.00;;;4.20;99.90;;;;;;5028849;28;20207;-64
2023/01/24 00:08:53;;;;;;;13.70;9.20;;;4.00;1.00;;;;;;5030693;28;20236;-64
2023/01/24 00:11:20;;;;;;;15.53;9.23;;;3.90;1.00;;;;;;5033336;28;20221;-64
2023/01/24 00:13:47;;;;;;;13.83;9.23;;;3.90;1.00;;;;;;5029892;28;20204;-64
2023/01/24 00:16:19;;;;;;;15.63;9.57;;;4.00;1.00;;;;;;5031661;28;20207;-64
2023/01/24 00:18:47;;;;;;;17.80;10.23;;;3.90;1.00;;;;;;5030986;28;20205;-64
2023/01/24 00:21:22;;;;;;;14.90;10.03;;;4.00;1.00;;;;;;5031899;28;20686;-64
2023/01/24 00:23:51;;;;;;;15.73;10.30;;;4.00;99.90;;;;;;5027834;28;20216;-64
2023/01/24 00:26:19;;;;;;;20.23;10.10;;;4.10;1.00;;;;;;5035556;28;20232;-64
2023/01/24 00:28:47;;;;;;;16.67;11.00;;;4.20;1.00;;;;;;5029750;28;20273;-64
2023/01/24 00:31:14;;;;;;;17.57;10.37;;;4.10;1.00;;;;;;5031123;28;20339;-65
2023/01/24 00:33:41;;;;;;;17.00;9.73;;;4.00;1.00;;;;;;5033110;28;20203;-64
2023/01/24 00:36:09;;;;;;;16.50;10.13;;;4.00;1.00;;;;;;5031379;28;20227;-65
2023/01/24 00:38:36;;;;;;;15.83;10.13;;;4.00;99.90;;;;;;5027197;28;20199;-64
2023/01/24 00:41:03;;;;;;;16.60;10.30;;;3.90;1.00;;;;;;5026503;28;20215;-64
2023/01/24 00:43:30;;;;;;;16.23;10.50;;;4.00;1.00;;;;;;5027203;28;20287;-64
2023/01/24 00:45:56;;;;;;;15.50;10.10;;;4.10;1.00;;;;;;5029848;28;20558;-64
2023/01/24 00:48:23;;;;;;;14.90;9.63;;;4.00;1.00;;;;;;5027494;28;20349;-64
2023/01/24 00:50:50;;;;;;;15.73;9.43;;;4.00;1.00;;;;;;5017690;28;20218;-64
2023/01/24 00:53:19;;;;;;;15.37;10.13;;;4.10;1.00;;;;;;5028925;28;20282;-63
2023/01/24 00:55:47;;;;;;;17.20;10.37;;;4.10;1.00;;;;;;5031326;28;20254;-66
2023/01/24 00:58:14;;;;;;;15.30;9.73;;;4.00;99.90;;;;;;5028812;28;20201;-64
2023/01/24 01:00:41;;;;;;;13.23;8.37;;;4.00;99.90;;;;;;5030180;28;20252;-64
2023/01/24 01:03:15;;;;;;;17.93;10.33;;;4.10;99.90;;;;;;5031504;28;20243;-64
2023/01/24 01:05:42;;;;;;;12.50;9.23;;;4.00;1.00;;;;;;5030842;28;20207;-64
2023/01/24 01:08:09;;;;;;;15.53;9.37;;;4.00;1.00;;;;;;5025954;28;20690;-64
2023/01/24 01:10:37;;;;;;;15.60;9.97;;;4.10;1.00;;;;;;5030271;28;20225;-64
2023/01/24 01:13:04;;;;;;;17.20;9.93;;;4.10;99.90;;;;;;5024514;28;20533;-64
2023/01/24 01:15:32;;;;;;;15.53;10.50;;;4.00;99.90;;;;;;5029355;28;20240;-64
2023/01/24 01:17:58;;;;;;;15.23;10.27;;;4.20;1.00;;;;;;5027831;28;20535;-64
2023/01/24 01:20:26;;;;;;;17.20;9.70;;;4.20;99.90;;;;;;5025253;28;20206;-64
2023/01/24 01:22:53;;;;;;;14.30;10.13;;;4.10;1.00;;;;;;5028233;28;20626;-64
2023/01/24 01:25:20;;;;;;;16.87;10.57;;;4.20;99.90;;;;;;5025903;28;20595;-63
2023/01/24 01:27:47;;;;;;;18.30;10.03;;;4.10;99.90;;;;;;5028859;28;20303;-63
2023/01/24 01:30:14;;;;;;;15.73;10.33;;;4.00;1.00;;;;;;5031329;28;20247;-63
2023/01/24 01:32:41;;;;;;;16.13;11.37;;;4.10;1.00;;;;;;5031439;28;20195;-63
2023/01/24 01:35:08;;;;;;;14.80;9.90;;;4.20;1.00;;;;;;5025505;28;20846;-65
2023/01/24 01:37:35;;;;;;;15.70;10.23;;;4.20;1.00;;;;;;5025003;28;20315;-63
2023/01/24 01:40:02;;;;;;;14.83;9.87;;;4.30;1.00;;;;;;5023102;28;20759;-63
2023/01/24 01:42:49;;;;;;;15.43;9.43;;;4.30;1.00;;;;;;5031818;28;20211;-64
2023/01/24 01:45:38;;;;;;;15.90;10.40;;;4.20;99.90;;;;;;5031001;28;20214;-65
2023/01/24 01:48:34;;;;;;;12.30;8.50;;;4.10;99.90;;;;;;5030585;28;20200;-64
2023/01/24 01:51:20;;;;;;;14.23;9.20;;;4.10;1.00;;;;;;5030451;28;20220;-63
2023/01/24 01:54:03;;;;;;;15.97;9.57;;;4.10;99.90;;;;;;5033390;28;20259;-63
2023/01/24 01:56:57;;;;;;;15.00;8.87;;;4.20;99.90;;;;;;5030190;28;20192;-65
2023/01/24 01:59:29;;;;;;;15.43;9.17;;;4.20;99.90;;;;;;5029189;28;20197;-63
2023/01/24 02:01:57;;;;;;;13.57;8.90;;;4.10;99.90;;;;;;5031821;28;20231;-63
2023/01/24 02:04:31;;;;;;;12.47;8.63;;;4.00;1.00;;;;;;5030488;28;20240;-64
2023/01/24 02:07:15;;;;;;;15.97;8.57;;;4.00;99.90;;;;;;5030262;28;20592;-69
2023/01/24 02:09:44;;;;;;;11.87;8.17;;;4.00;99.90;;;;;;5025923;28;20205;-63
2023/01/24 02:12:19;;;;;;;13.57;9.07;;;4.00;99.90;;;;;;5030281;28;20230;-64
2023/01/24 02:17:40;;;;;;;11.20;8.43;;;4.00;99.90;;;;;;5026253;28;20198;-64
2023/01/24 02:20:12;;;;;;;14.90;9.37;;;3.90;99.90;;;;;;5033247;28;20222;-63
2023/01/24 02:23:06;;;;;;;12.47;9.00;;;3.90;99.90;;;;;;5026408;28;20233;-63
2023/01/24 02:26:06;;;;;;;13.50;8.17;;;3.80;1.00;;;;;;5012137;28;20247;-63
2023/01/24 02:28:34;;;;;;;11.90;8.93;;;3.90;1.00;;;;;;5029066;28;20198;-63
2023/01/24 02:31:03;;;;;;;13.83;9.03;;;3.90;1.00;;;;;;5029247;28;20233;-64
2023/01/24 02:33:30;;;;;;;13.97;9.20;;;3.90;1.00;;;;;;5029162;28;20208;-63
2023/01/24 02:36:32;;;;;;;12.97;8.40;;;4.00;1.00;;;;;;5033036;28;20379;-66
2023/01/24 02:39:10;;;;;;;13.47;9.00;;;4.00;1.00;;;;;;5026459;28;20209;-65
2023/01/24 02:41:50;;;;;;;13.73;8.90;;;3.90;1.00;;;;;;5028554;28;20252;-64
2023/01/24 02:44:27;;;;;;;15.63;9.20;;;3.90;1.00;;;;;;5028285;28;20232;-65
2023/01/24 02:46:54;;;;;;;16.47;9.50;;;3.90;1.00;;;;;;5028688;28;20291;-64
2023/01/24 02:49:21;;;;;;;14.20;9.47;;;3.90;1.00;;;;;;5026143;28;20204;-63
2023/01/24 02:54:33;;;;;;;13.70;9.20;;;3.80;1.00;;;;;;5022439;28;20653;-65
2023/01/24 02:59:45;;;;;;;15.87;9.83;;;3.80;1.00;;;;;;5030879;28;20599;-64
2023/01/24 03:02:12;;;;;;;13.43;9.53;;;3.70;1.00;;;;;;5032952;28;20202;-63
2023/01/24 03:04:39;;;;;;;15.57;9.83;;;3.60;1.00;;;;;;5035671;28;20219;-64
2023/01/24 03:07:05;;;;;;;14.93;10.37;;;3.70;1.00;;;;;;5029833;28;20242;-63
2023/01/24 03:09:38;;;;;;;14.43;9.13;;;3.80;1.00;;;;;;5032059;28;20292;-63
2023/01/24 03:34:33;;;;;;;14.57;11.00;;;3.90;1.00;;;;;;5032892;28;20296;-64
2023/01/24 03:37:00;;;;;;;15.60;9.90;;;3.70;1.00;;;;;;5034504;28;20232;-63
2023/01/24 03:42:13;;;;;;;16.37;10.60;;;3.50;99.90;;;;;;5029626;28;20217;-64
2023/01/24 03:44:39;;;;;;;18.23;11.03;;;3.50;99.90;;;;;;5036312;28;20243;-63
2023/01/24 03:47:06;;;;;;;16.30;9.83;;;3.40;99.90;;;;;;5033623;28;20245;-63
2023/01/24 03:52:28;;;;;;;15.37;9.50;;;3.70;99.90;;;;;;5031491;28;20667;-63
2023/01/24 03:54:55;;;;;;;17.03;10.63;;;3.70;99.90;;;;;;5029602;28;20192;-63
2023/01/24 03:57:23;;;;;;;15.20;10.67;;;3.70;1.00;;;;;;5029339;28;20722;-64
2023/01/24 03:59:50;;;;;;;16.03;10.07;;;3.70;1.00;;;;;;5034672;28;20283;-64
2023/01/24 04:02:17;;;;;;;14.67;9.70;;;3.50;1.00;;;;;;5033370;28;20204;-64
2023/01/24 04:07:30;;;;;;;15.27;9.63;;;3.40;32.30;;;;;;5030218;28;21138;-64
2023/01/24 04:09:59;;;;;;;15.80;10.40;;;3.50;1.00;;;;;;5027443;28;20316;-64
2023/01/24 04:12:26;;;;;;;14.10;9.20;;;3.50;2.50;;;;;;5032452;28;20408;-64
2023/01/24 04:14:53;;;;;;;14.70;9.97;;;3.50;1.00;;;;;;5026903;28;20207;-64
2023/01/24 04:17:20;;;;;;;17.50;10.40;;;3.40;83.40;;;;;;5028112;28;20239;-66
2023/01/24 04:19:47;;;;;;;15.87;9.63;;;3.20;99.90;;;;;;5031666;28;20674;-64
2023/01/24 04:22:18;;;;;;;16.37;10.13;;;3.20;1.00;;;;;;5031809;28;20206;-64
2023/01/24 04:24:45;;;;;;;15.77;10.20;;;3.30;99.90;;;;;;5024718;28;20363;-64
2023/01/24 04:27:12;;;;;;;14.17;9.77;;;3.40;99.90;;;;;;5019162;28;20196;-64
2023/01/24 04:29:39;;;;;;;16.47;10.87;;;3.30;99.90;;;;;;5027518;28;20470;-64
2023/01/24 04:32:07;;;;;;;17.70;10.67;;;3.40;99.90;;;;;;5029122;28;20264;-64
2023/01/24 04:34:34;;;;;;;15.57;10.27;;;3.30;99.90;;;;;;5029435;28;20218;-65
2023/01/24 04:37:00;;;;;;;15.87;9.83;;;3.30;99.90;;;;;;5032134;28;20224;-64
2023/01/24 04:39:27;;;;;;;17.97;10.53;;;3.30;99.90;;;;;;5029466;28;20641;-64
2023/01/24 04:41:54;;;;;;;15.17;10.07;;;3.30;1.00;;;;;;5023525;28;20602;-65
2023/01/24 04:44:21;;;;;;;14.80;10.03;;;3.40;1.00;;;;;;5027686;28;20716;-64
2023/01/24 04:46:47;;;;;;;17.47;11.17;;;3.40;99.90;;;;;;5029808;28;20207;-66
2023/01/24 04:49:14;;;;;;;16.07;10.37;;;3.40;99.90;;;;;;5024883;28;20681;-64
2023/01/24 04:51:42;;;;;;;17.87;11.17;;;3.40;99.90;;;;;;5031229;28;20234;-64
2023/01/24 04:54:12;;;;;;;15.83;10.33;;;3.30;1.00;;;;;;5027854;28;20213;-65
2023/01/24 04:56:38;;;;;;;16.30;10.33;;;3.40;1.00;;;;;;5032810;28;20205;-65
2023/01/24 04:59:05;;;;;;;16.13;10.83;;;3.30;99.90;;;;;;5027983;28;20200;-64
2023/01/24 05:01:32;;;;;;;16.20;10.60;;;3.30;1.00;;;;;;5025652;28;20494;-64
2023/01/24 05:03:59;;;;;;;16.77;10.87;;;3.40;1.00;;;;;;5030140;28;20202;-65
2023/01/24 05:06:27;;;;;;;16.80;11.13;;;3.40;1.00;;;;;;5028767;28;20657;-64
2023/01/24 05:08:55;;;;;;;14.90;10.67;;;3.50;1.00;;;;;;5027611;28;20221;-64
2023/01/24 05:11:22;;;;;;;16.47;10.77;;;3.60;1.00;;;;;;5026884;28;20569;-64
2023/01/24 05:13:49;;;;;;;16.53;10.47;;;3.60;99.90;;;;;;5030562;28;20200;-64
2023/01/24 05:16:17;;;;;;;16.93;10.87;;;3.40;99.90;;;;;;5029153;28;20244;-63
2023/01/24 05:18:47;;;;;;;16.63;10.97;;;3.40;99.90;;;;;;5028797;28;20195;-64
2023/01/24 05:21:17;;;;;;;14.83;9.53;;;3.30;99.90;;;;;;5028607;28;20210;-64
2023/01/24 05:23:49;;;;;;;15.27;10.10;;;3.20;99.90;;;;;;5026860;28;20260;-64
2023/01/24 05:26:16;;;;;;;15.10;10.00;;;3.30;1.00;;;;;;5029947;28;20205;-66
2023/01/24 05:28:42;;;;;;;16.73;10.70;;;3.30;99.90;;;;;;5025438;28;20221;-64
2023/01/24 05:31:09;;;;;;;17.50;11.33;;;3.30;1.00;;;;;;5018440;28;20321;-64
2023/01/24 05:33:36;;;;;;;14.20;10.77;;;3.40;1.00;;;;;;5027638;28;20208;-63
2023/01/24 05:36:06;;;;;;;16.93;10.70;;;3.40;1.00;;;;;;5029944;28;20274;-64
2023/01/24 05:38:33;;;;;;;17.23;10.00;;;3.40;1.00;;;;;;5030349;28;20542;-63
2023/01/24 05:41:03;;;;;;;16.97;10.43;;;3.30;1.00;;;;;;5026407;28;20261;-64
2023/01/24 05:43:30;;;;;;;16.03;10.70;;;3.30;1.00;;;;;;5045224;28;20245;-64
2023/01/24 05:46:12;;;;;;;14.93;10.43;;;3.30;1.00;;;;;;5028051;28;20203;-63
2023/01/24 05:48:41;;;;;;;16.10;9.97;;;3.30;99.90;;;;;;5028811;28;20226;-64
2023/01/24 05:51:09;;;;;;;16.13;10.30;;;3.30;1.00;;;;;;5032279;28;20224;-64
2023/01/24 05:53:38;;;;;;;17.13;10.27;;;3.20;99.90;;;;;;5030760;28;20202;-64
2023/01/24 05:56:14;;;;;;;16.17;10.10;;;3.20;1.00;;;;;;5032635;28;20222;-65
2023/01/24 05:58:43;;;;;;;17.77;11.27;;;3.20;1.00;;;;;;5025422;28;20204;-65
2023/01/24 06:01:16;;;;;;;15.23;9.90;;;3.40;1.00;;;;;;5030379;28;20473;-66
2023/01/24 06:03:45;;;;;;;17.60;10.93;;;3.30;99.90;;;;;;5048045;28;20606;-64
2023/01/24 06:06:13;;;;;;;15.97;9.60;;;3.30;1.00;;;;;;5030471;28;20594;-64
2023/01/24 06:08:40;;;;;;;16.20;10.37;;;3.20;99.90;;;;;;5032534;28;20632;-65
2023/01/24 06:11:13;;;;;;;18.53;11.20;;;3.20;1.00;;;;;;5034717;28;20239;-65
2023/01/24 06:13:41;;;;;;;15.53;10.70;;;3.20;1.00;;;;;;5029446;28;20228;-65
2023/01/24 06:16:16;;;;;;;16.60;10.47;;;3.30;1.00;;;;;;5032120;28;20655;-65
2023/01/24 06:18:44;;;;;;;19.77;10.93;;;3.40;1.00;;;;;;5028086;28;20711;-65
2023/01/24 06:21:35;;;;;;;16.43;10.93;;;3.10;99.90;;;;;;5033646;28;20324;-60
2023/01/24 06:24:03;;;;;;;19.00;10.37;;;3.00;1.00;;;;;;5034401;28;20198;-60
2023/01/24 06:26:30;;;;;;;16.77;10.30;;;3.10;1.00;;;;;;5036750;28;20205;-60
2023/01/24 06:28:58;;;;;;;17.23;9.97;;;3.00;1.00;;;;;;5032204;28;20191;-61
2023/01/24 06:31:38;;;;;;;16.00;10.53;;;3.10;1.00;;;;;;5031819;28;20216;-60
2023/01/24 06:34:35;;;;;;;16.13;10.53;;;3.30;1.00;;;;;;5035505;28;20298;-60
2023/01/24 06:37:21;;;;;;;18.27;11.47;;;3.10;1.00;;;;;;5033085;28;20308;-61
2023/01/24 06:39:53;;;;;;;20.13;11.60;;;3.10;1.00;;;;;;5037262;28;20211;-62
2023/01/24 06:42:21;;;;;;;18.90;11.13;;;3.00;1.00;;;;;;5034984;28;20227;-61
2023/01/24 06:44:50;;;;;;;17.57;11.33;;;2.90;1.00;;;;;;5038648;28;20593;-64
2023/01/24 06:47:16;;;;;;;18.00;11.77;;;2.90;1.00;;;;;;5033889;28;20200;-64
2023/01/24 06:49:43;;;;;;;17.83;10.70;;;3.00;1.00;;;;;;5032093;28;20919;-64
2023/01/24 06:52:12;;;;;;;18.77;11.50;;;3.10;1.00;;;;;;5036865;28;20224;-65
2023/01/24 06:54:39;;;;;;;18.57;11.20;;;3.10;1.00;;;;;;5021781;28;20625;-64
2023/01/24 06:57:05;;;;;;;19.43;11.73;;;3.20;1.00;;;;;;5025004;28;20972;-64
2023/01/24 06:59:32;;;;;;;16.27;11.07;;;3.30;1.00;;;;;;5028314;28;20730;-65
2023/01/24 07:01:59;;;;;;;20.90;12.50;;;3.30;1.00;;;;;;5017281;28;20235;-64
2023/01/24 07:04:26;;;;;;;18.57;12.80;;;3.30;1.00;;;;;;4660129;28;9999634;-64
2023/01/24 07:06:52;;;;;;;18.50;12.33;;;3.40;1.00;;;;;;5013809;28;20268;-61
2023/01/24 07:09:20;;;;;;;18.80;12.10;;;3.40;1.00;;;;;;5021477;28;20227;-60
2023/01/24 07:11:54;;;;;;;18.97;12.47;;;3.40;99.90;;;;;;5023021;28;20226;-61
2023/01/24 07:14:21;;;;;;;19.43;12.03;;;3.30;99.90;;;;;;5020480;28;20215;-59
2023/01/24 07:16:49;;;;;;;19.63;12.43;;;3.10;1.00;;;;;;5026463;28;20200;-63
2023/01/24 07:19:18;;;;;;;21.57;13.23;;;3.10;1.00;;;;;;5027522;28;20198;-63
2023/01/24 07:21:46;;;;;;;19.07;12.47;;;3.20;99.90;;;;;;5027437;28;20241;-60
2023/01/24 07:24:18;;;;;;;16.87;12.17;;;3.20;1.00;;;;;;5028896;28;20676;-60
2023/01/24 07:26:48;;;;;;;19.47;12.47;;;3.20;1.00;;;;;;5036525;28;20897;-61
2023/01/24 07:29:14;;;;;;;18.57;11.47;;;3.30;1.00;;;;;;5034826;28;20196;-63
2023/01/24 07:31:41;;;;;;;20.73;12.63;;;3.30;99.90;;;;;;5029379;28;20698;-60
2023/01/24 07:34:08;;;;;;;20.30;13.17;;;3.30;99.90;;;;;;5034928;28;20205;-61
2023/01/24 07:36:35;;;;;;;21.17;13.50;;;3.30;1.00;;;;;;5036132;28;20227;-60
2023/01/24 07:39:02;;;;;;;22.47;12.90;;;3.40;99.90;;;;;;5033920;28;20197;-62
2023/01/24 07:41:28;;;;;;;19.63;13.47;;;3.30;99.90;;;;;;5035232;28;20202;-63
2023/01/24 07:43:55;;;;;;;22.43;13.17;;;3.30;1.00;;;;;;5031804;28;20283;-60
2023/01/24 07:46:22;;;;;;;20.50;12.00;;;3.40;1.00;;;;;;5034032;28;20205;-60
2023/01/24 07:48:49;;;;;;;19.53;12.93;;;3.20;99.90;;;;;;5024789;28;20211;-61
2023/01/24 07:51:15;;;;;;;21.77;14.13;;;3.20;99.90;;;;;;5032813;28;20329;-62
2023/01/24 07:53:42;;;;;;;22.03;13.20;;;3.30;1.00;;;;;;5033286;28;20197;-61
2023/01/24 07:56:09;;;;;;;22.17;13.47;;;3.30;99.90;;;;;;5029966;28;20192;-60
2023/01/24 07:58:50;;;;;;;20.47;13.00;;;3.30;1.00;;;;;;5035452;28;20192;-60
2023/01/24 08:01:18;;;;;;;20.67;13.10;;;3.10;1.00;;;;;;5032474;28;20206;-60
2023/01/24 08:03:45;;;;;;;19.17;13.13;;;3.10;1.00;;;;;;5037224;28;20188;-59
2023/01/24 08:06:12;;;;;;;21.90;13.40;;;2.90;1.00;;;;;;5035803;28;20282;-60
2023/01/24 08:08:39;;;;;;;21.17;12.87;;;3.00;1.00;;;;;;5031706;28;20213;-59
2023/01/24 08:11:06;;;;;;;20.47;13.03;;;3.20;1.00;;;;;;5034726;28;20193;-60
2023/01/24 08:13:33;;;;;;;21.97;13.53;;;3.20;1.00;;;;;;5036333;28;20544;-60
2023/01/24 08:16:00;;;;;;;20.97;13.43;;;3.20;1.00;;;;;;5033510;28;20197;-59
2023/01/24 08:18:27;;;;;;;26.37;14.50;;;3.20;1.00;;;;;;5033974;28;20199;-63
2023/01/24 08:20:55;;;;;;;22.63;14.53;;;3.30;1.00;;;;;;5037634;28;20253;-59
2023/01/24 08:23:23;;;;;;;20.53;13.13;;;3.30;1.00;;;;;;5017421;28;20287;-59
2023/01/24 08:25:49;;;;;;;21.43;13.33;;;3.30;1.00;;;;;;5032941;28;20244;-60
2023/01/24 08:28:16;;;;;;;23.43;13.80;;;3.30;99.90;;;;;;5030642;28;20217;-62
2023/01/24 08:30:44;;;;;;;20.57;12.47;;;3.30;99.90;;;;;;5023755;28;20201;-60
2023/01/24 08:33:17;;;;;;;21.17;13.13;;;3.00;99.90;;;;;;5025544;28;20250;-62
2023/01/24 08:35:45;;;;;;;21.67;12.80;;;3.00;1.00;;;;;;5017035;28;20305;-61
2023/01/24 08:38:13;;;;;;;20.63;13.63;;;3.00;1.00;;;;;;5016941;28;20890;-61
2023/01/24 08:40:40;;;;;;;19.53;12.80;;;3.00;1.00;;;;;;5016828;28;20206;-60
2023/01/24 08:43:16;;;;;;;21.87;12.07;;;3.00;1.00;;;;;;5015529;28;20289;-60
2023/01/24 08:45:43;;;;;;;21.27;12.07;;;3.00;1.00;;;;;;5024921;28;20569;-60
2023/01/24 08:48:09;;;;;;;19.23;12.17;;;2.90;1.00;;;;;;5024628;28;20384;-60
2023/01/24 08:50:36;;;;;;;19.27;12.47;;;2.90;1.00;;;;;;5024532;28;20222;-60
2023/01/24 08:53:03;;;;;;;21.73;13.07;;;2.80;76.80;;;;;;5026537;28;20243;-60
2023/01/24 08:55:30;;;;;;;21.03;13.10;;;2.90;99.90;;;;;;5015340;28;20216;-60
2023/01/24 08:58:00;;;;;;;25.60;14.47;;;3.00;1.00;;;;;;5023690;28;20544;-61
2023/01/24 09:00:27;;;;;;;18.50;11.90;;;3.10;1.00;;;;;;5031023;28;20638;-60
2023/01/24 09:02:54;;;;;;;21.23;13.93;;;3.20;1.00;;;;;;5031459;28;20205;-60
2023/01/24 09:05:21;;;;;;;21.33;13.50;;;3.20;1.00;;;;;;5028041;28;20357;-62
2023/01/24 09:07:49;;;;;;;19.13;12.13;;;3.10;99.90;;;;;;5032199;28;20332;-61
2023/01/24 09:10:16;;;;;;;22.60;13.07;;;2.90;1.00;;;;;;5023843;28;20199;-60
2023/01/24 09:12:42;;;;;;;22.27;13.10;;;2.80;1.00;;;;;;5025186;28;20637;-60
2023/01/24 09:15:10;;;;;;;21.50;11.43;;;2.90;1.00;;;;;;5032500;28;20614;-60
2023/01/24 09:17:37;;;;;;;18.90;11.47;;;2.90;1.00;;;;;;5033272;28;20286;-61
2023/01/24 09:20:05;;;;;;;19.43;10.73;;;3.00;78.90;;;;;;5032012;28;20201;-60
2023/01/24 09:22:32;;;;;;;22.43;13.53;;;2.90;1.00;;;;;;5027482;28;20292;-60
2023/01/24 09:24:58;;;;;;;20.17;12.13;;;3.00;1.00;;;;;;5021553;28;20205;-60
2023/01/24 09:27:25;;;;;;;20.73;11.80;;;3.00;1.00;;;;;;5029179;28;20226;-60
2023/01/24 09:29:52;;;;;;;21.77;12.87;;;3.00;1.00;;;;;;5029939;28;20211;-61
2023/01/24 09:32:19;;;;;;;18.93;12.40;;;3.10;1.00;;;;;;5032247;28;20216;-60
2023/01/24 09:34:47;;;;;;;18.33;11.53;;;3.20;1.00;;;;;;5036803;28;20223;-60
2023/01/24 09:37:18;;;;;;;18.77;11.77;;;3.10;1.00;;;;;;5030941;28;20251;-60
2023/01/24 09:39:46;;;;;;;21.63;12.53;;;3.00;99.90;;;;;;5027544;28;20249;-60
2023/01/24 09:42:39;;;;;;;20.60;12.37;;;3.10;1.00;;;;;;5033248;28;20283;-62
2023/01/24 09:45:31;;;;;;;20.90;12.90;;;3.10;1.00;;;;;;5032878;28;20217;-62
2023/01/24 09:48:02;;;;;;;23.13;11.90;;;3.20;1.00;;;;;;5015894;28;20579;-59
2023/01/24 09:50:29;;;;;;;21.43;12.30;;;3.10;1.00;;;;;;5029836;28;20290;-59
2023/01/24 09:52:57;;;;;;;23.03;12.27;;;3.10;1.00;;;;;;5028694;28;20234;-63
2023/01/24 09:55:27;;;;;;;17.10;11.90;;;3.10;99.90;;;;;;5027486;28;20201;-59
2023/01/24 09:58:30;;;;;;;19.20;11.70;;;2.80;1.00;;;;;;5029741;28;20442;-59
2023/01/24 10:01:01;;;;;;;20.53;11.80;;;2.80;1.00;;;;;;5032726;28;20231;-60
2023/01/24 10:03:28;;;;;;;19.17;11.10;;;2.80;1.00;;;;;;5034723;28;20200;-61
2023/01/24 10:06:01;;;;;;;19.23;11.10;;;2.80;1.00;;;;;;5028405;28;20200;-59
2023/01/24 10:08:55;;;;;;;18.03;11.70;;;2.90;1.00;;;;;;5029771;28;20311;-60
2023/01/24 10:11:43;;;;;;;20.97;11.70;;;3.00;1.00;;;;;;5030640;28;20663;-61
2023/01/24 10:14:31;;;;;;;19.20;11.03;;;3.10;1.00;;;;;;5034920;28;20217;-60
2023/01/24 10:17:10;;;;;;;20.63;12.07;;;3.20;99.90;;;;;;5018367;28;20706;-60
2023/01/24 10:20:18;;;;;;;17.47;11.33;;;3.20;99.90;;;;;;5028875;28;20732;-62
2023/01/24 10:22:55;;;;;;;20.37;11.60;;;3.10;99.90;;;;;;5019744;28;20303;-59
2023/01/24 10:25:27;;;;;;;18.47;10.30;;;3.00;99.90;;;;;;5030093;28;20205;-60
2023/01/24 10:27:57;;;;;;;18.97;11.50;;;3.20;99.90;;;;;;5023840;28;20200;-61
2023/01/24 10:30:51;;;;;;;17.83;10.20;;;3.10;99.90;;;;;;5027538;28;20198;-60
2023/01/24 10:33:19;;;;;;;21.33;11.57;;;3.10;99.90;;;;;;5024937;28;20276;-60
2023/01/24 10:35:55;;;;;;;17.90;11.27;;;3.10;99.90;;;;;;5030295;28;20660;-59
2023/01/24 10:38:22;;;;;;;15.87;10.87;;;3.10;99.90;;;;;;5027489;28;20210;-58
2023/01/24 10:41:00;;;;;;;17.70;10.63;;;3.10;99.90;;;;;;5028158;28;20214;-60
2023/01/24 10:43:31;;;;;;;19.63;11.80;;;3.00;99.90;;;;;;5029786;28;20293;-61
2023/01/24 10:45:57;;;;;;;16.73;10.90;;;3.10;99.90;;;;;;5030784;28;20654;-59
2023/01/24 10:48:39;;;;;;;21.50;10.97;;;3.10;99.90;;;;;;5032347;28;20575;-59
2023/01/24 10:51:18;;;;;;;20.00;11.53;;;3.20;1.00;;;;;;5033987;28;20203;-60
2023/01/24 10:53:46;;;;;;;20.50;12.13;;;3.10;71.10;;;;;;5031757;28;20337;-59
2023/01/24 10:56:16;;;;;;;18.90;10.77;;;3.00;1.00;;;;;;5037633;28;20210;-60
2023/01/24 10:58:43;;;;;;;16.90;10.47;;;3.00;99.90;;;;;;5023826;28;20209;-59
2023/01/24 11:01:22;;;;;;;19.67;10.80;;;3.20;99.90;;;;;;5029171;28;20204;-60
2023/01/24 11:03:52;;;;;;;18.17;11.00;;;3.20;99.90;;;;;;5026217;28;20248;-60
2023/01/24 11:06:33;;;;;;;17.27;10.50;;;3.30;1.00;;;;;;5029373;28;20560;-60
2023/01/24 11:09:10;;;;;;;16.63;10.77;;;3.30;1.00;;;;;;5035717;28;20785;-62
2023/01/24 11:11:45;;;;;;;18.37;10.53;;;3.20;1.00;;;;;;5038389;28;22220;-60
2023/01/24 11:14:28;;;;;;;16.58;10.40;;;3.20;46.40;;;;;;4921021;28;10000912;-61
2023/01/24 11:16:57;;;;;;;15.53;10.57;;;3.20;99.90;;;;;;5039063;28;20419;-60
2023/01/24 11:19:35;;;;;;;17.00;10.80;;;3.30;57.20;;;;;;5030031;28;20196;-60
2023/01/24 11:22:23;;;;;;;17.10;10.23;;;3.30;1.00;;;;;;5035435;28;20817;-60
2023/01/24 11:24:55;;;;;;;16.83;10.23;;;3.20;1.00;;;;;;5038318;28;20206;-61
2023/01/24 11:27:26;;;;;;;15.60;9.83;;;3.10;1.00;;;;;;5033820;28;20196;-60
2023/01/24 11:30:15;;;;;;;15.73;9.83;;;3.20;1.00;;;;;;5031146;28;20647;-60
2023/01/24 11:33:38;;;;;;;15.07;9.63;;;3.10;1.00;;;;;;5034602;28;20252;-61
2023/01/24 11:36:20;;;;;;;17.07;9.70;;;3.00;1.00;;;;;;4982460;28;20222;-61
2023/01/24 11:38:51;;;;;;;14.30;8.70;;;2.90;1.00;;;;;;4993009;28;20229;-60
2023/01/24 11:41:41;;;;;;;16.73;9.70;;;3.00;1.00;;;;;;4986227;28;20202;-61
2023/01/24 11:44:26;;;;;;;15.67;9.10;;;3.00;1.00;;;;;;4988373;28;20702;-60
2023/01/24 11:47:04;;;;;;;13.67;8.03;;;3.10;1.00;;;;;;4991314;28;20217;-60
2023/01/24 11:50:02;;;;;;;14.37;8.73;;;3.20;1.00;;;;;;4987395;28;20613;-60
2023/01/24 11:52:59;;;;;;;18.13;9.83;;;3.20;1.00;;;;;;4990661;28;20739;-60
2023/01/24 11:55:26;;;;;;;17.33;9.93;;;3.20;1.00;;;;;;4990993;28;20300;-60
2023/01/24 11:58:37;;;;;;;14.83;8.63;;;3.30;1.00;;;;;;4990612;28;20206;-60
2023/01/24 12:01:16;;;;;;;15.57;9.80;;;3.30;1.00;;;;;;4917233;29;20209;-59
2023/01/24 12:03:48;;;;;;;14.33;8.90;;;3.30;1.00;;;;;;4916036;29;20263;-60
2023/01/24 12:06:23;;;;;;;15.87;9.93;;;3.30;1.00;;;;;;4900254;29;20235;-60
2023/01/24 12:09:00;;;;;;;14.07;9.87;;;3.40;1.00;;;;;;4910334;28;20340;-60
2023/01/24 12:11:29;;;;;;;14.50;9.43;;;3.40;1.00;;;;;;4969701;28;20233;-61
2023/01/24 12:14:33;;;;;;;15.60;9.67;;;3.40;1.00;;;;;;4973497;28;20221;-60
2023/01/24 12:17:25;;;;;;;15.87;9.70;;;3.40;1.00;;;;;;4976940;28;20720;-60
2023/01/24 12:19:58;;;;;;;18.03;10.03;;;3.40;1.00;;;;;;4970294;28;20206;-60
2023/01/24 12:22:27;;;;;;;19.67;10.07;;;3.30;1.00;;;;;;4976382;28;20277;-60
2023/01/24 12:25:01;;;;;;;13.13;8.90;;;3.40;1.00;;;;;;4959757;28;20288;-60
2023/01/24 12:27:34;;;;;;;17.90;9.47;;;3.40;1.00;;;;;;4974464;28;20201;-60
2023/01/24 12:30:28;;;;;;;14.17;9.27;;;3.40;1.00;;;;;;4972493;28;20206;-62
2023/01/24 12:33:22;;;;;;;15.23;9.10;;;3.40;1.00;;;;;;4959800;28;20275;-62
2023/01/24 12:35:56;;;;;;;13.07;8.23;;;3.50;1.00;;;;;;5020856;28;20824;-60
2023/01/24 12:38:41;;;;;;;14.83;8.73;;;3.70;1.00;;;;;;5032055;28;20204;-60
2023/01/24 12:41:33;;;;;;;15.80;9.10;;;3.60;1.00;;;;;;5027566;28;20618;-60
2023/01/24 12:44:31;;;;;;;14.43;9.23;;;3.50;99.90;;;;;;5024946;28;20651;-60
2023/01/24 12:47:40;;;;;;;12.70;8.07;;;3.50;1.00;;;;;;5015850;28;20302;-61
2023/01/24 12:50:14;;;;;;;14.17;8.90;;;3.40;1.00;;;;;;5024015;28;20652;-61
2023/01/24 12:52:50;;;;;;;12.37;8.03;;;3.40;1.00;;;;;;5036376;28;20711;-60
2023/01/24 12:55:32;;;;;;;15.17;9.40;;;3.30;1.00;;;;;;5031821;28;20687;-60
2023/01/24 12:58:10;;;;;;;13.40;8.90;;;3.50;1.00;;;;;;5028485;28;20243;-61
2023/01/24 13:01:26;;;;;;;12.60;8.53;;;3.30;1.00;;;;;;5021325;28;20892;-62
2023/01/24 13:03:58;;;;;;;13.77;8.70;;;3.20;1.00;;;;;;4941548;28;20214;-61
2023/01/24 13:06:42;;;;;;;13.40;8.70;;;3.30;1.00;;;;;;4951143;28;20761;-60
2023/01/24 13:09:34;;;;;;;12.83;8.03;;;3.40;1.00;;;;;;4991850;28;20629;-61
2023/01/24 13:12:03;;;;;;;12.53;8.37;;;3.40;99.90;;;;;;5028493;28;20307;-61
2023/01/24 13:14:42;;;;;;;13.97;9.07;;;3.40;99.90;;;;;;5025807;28;20282;-59
2023/01/24 13:17:09;;;;;;;13.83;8.50;;;3.50;99.90;;;;;;5032238;28;20227;-60
2023/01/24 13:20:00;;;;;;;13.37;8.83;;;3.30;99.90;;;;;;5027152;28;20220;-61
2023/01/24 13:22:51;;;;;;;14.40;9.20;;;3.20;1.00;;;;;;5032097;28;20224;-61
2023/01/24 13:25:25;;;;;;;13.67;8.40;;;3.10;1.00;;;;;;5032128;28;20199;-60
2023/01/24 13:28:17;;;;;;;15.67;9.07;;;3.00;1.00;;;;;;5032017;28;20281;-60
2023/01/24 13:31:10;;;;;;;13.83;8.97;;;3.10;1.00;;;;;;5029391;28;20270;-59
2023/01/24 13:33:53;;;;;;;15.17;8.77;;;3.20;1.00;;;;;;5033455;28;20314;-61
2023/01/24 13:36:24;;;;;;;13.47;8.73;;;3.20;99.90;;;;;;5032234;28;20224;-60
2023/01/24 13:38:52;;;;;;;12.23;8.37;;;3.10;1.00;;;;;;5034245;28;20287;-59
2023/01/24 13:41:34;;;;;;;14.67;8.17;;;3.30;1.00;;;;;;5033391;28;20231;-61
2023/01/24 13:44:05;;;;;;;13.83;8.67;;;3.30;1.00;;;;;;5031328;28;20337;-60
2023/01/24 13:46:42;;;;;;;12.93;8.70;;;3.30;1.00;;;;;;5030593;28;20219;-61
2023/01/24 13:49:27;;;;;;;13.93;8.27;;;3.30;1.00;;;;;;5032796;28;20293;-60
2023/01/24 13:51:55;;;;;;;14.37;8.47;;;3.40;1.00;;;;;;5033164;28;20295;-61
2023/01/24 13:54:40;;;;;;;12.83;8.43;;;3.40;1.00;;;;;;5034005;28;20240;-61
2023/01/24 13:57:12;;;;;;;13.43;8.83;;;3.40;1.00;;;;;;5029467;28;20258;-62